Time;durP1;ratioP1;P1;durP2;ratioP2;P2;SDS_P1;SDS_P2;PMS_P1;PMS_P2;Temp;Humidity;BMP_temperature;BMP_pressure;BME280_temperature;BME280_humidity;BME280_pressure;Samples;Min_cycle;Max_cycle;Signal;HPM_P1;HPM_P2
2023/09/01 11:11:09;;;;;;;3.78;2.72;;;;;;;21.18;73.20;99369.09;4986295;24;20078;-96
2023/09/01 11:24:05;;;;;;;4.57;3.35;;;;;;;22.19;74.67;99486.63;5214904;24;20053;-91
2023/09/01 14:39:07;;;;;;;5.13;3.15;;;;;;;22.20;73.71;99495.44;4954510;24;20146;-92
2023/09/01 14:41:32;;;;;;;6.75;4.05;;;;;;;22.23;73.55;99508.41;4790532;29;20137;-93
2023/09/01 14:48:02;;;;;;;5.55;3.95;;;;;;;22.11;73.01;99507.75;4834395;29;20044;-94
2023/09/01 14:57:54;;;;;;;5.43;3.17;;;;;;;22.20;75.05;99514.81;4693832;30;20049;-94
2023/09/01 15:07:03;;;;;;;4.07;3.53;;;;;;;22.22;74.25;99520.00;4650040;30;20453;-91
2023/09/01 15:09:29;;;;;;;6.32;3.30;;;;;;;22.13;74.29;99519.91;4660684;30;20051;-90
2023/09/01 15:11:55;;;;;;;3.92;3.38;;;;;;;22.08;74.34;99510.69;4632609;30;20046;-90
2023/09/01 15:14:20;;;;;;;3.30;2.90;;;;;;;22.06;74.67;99510.00;4631957;30;20051;-90
2023/09/01 15:16:47;;;;;;;3.47;3.15;;;;;;;22.11;75.01;99505.91;4632686;30;20035;-91
2023/09/01 15:19:13;;;;;;;4.82;3.10;;;;;;;22.23;74.58;99505.75;4647328;30;20429;-90
2023/09/01 15:21:42;;;;;;;4.65;2.85;;;;;;;22.27;73.49;99507.94;4629428;31;20548;-90
2023/09/01 15:24:08;;;;;;;4.00;3.00;;;;;;;22.32;73.28;99507.50;4615616;31;20043;-90
2023/09/01 15:26:34;;;;;;;3.95;3.08;;;;;;;22.33;73.55;99503.84;4622662;30;20168;-90
2023/09/01 15:29:00;;;;;;;4.47;2.85;;;;;;;22.33;72.82;99512.66;4734312;30;20044;-90
2023/09/01 15:31:26;;;;;;;6.05;3.50;;;;;;;22.26;72.81;99516.91;4745198;30;20409;-89
2023/09/01 15:33:52;;;;;;;2.97;2.55;;;;;;;22.19;73.42;99515.81;4754916;30;20509;-92
2023/09/01 15:36:18;;;;;;;5.75;3.53;;;;;;;22.10;74.78;99514.03;4756203;30;20096;-89
2023/09/01 15:38:44;;;;;;;4.15;2.92;;;;;;;22.03;75.19;99520.91;4752135;30;20150;-91
2023/09/01 15:41:10;;;;;;;4.70;3.13;;;;;;;21.82;75.32;99502.59;4753106;30;20048;-92
2023/09/01 15:43:35;;;;;;;3.90;3.35;;;;;;;21.84;76.75;99532.44;4755021;30;20473;-92
2023/09/01 15:46:07;;;;;;;4.57;3.55;;;;;;;21.76;76.85;99508.50;4752589;30;20063;-92
2023/09/01 15:48:32;;;;;;;4.13;3.22;;;;;;;21.71;76.78;99508.09;4752626;30;20409;-92
2023/09/01 15:51:00;;;;;;;5.15;3.47;;;;;;;21.65;76.47;99504.19;4752905;30;20040;-91
2023/09/01 15:53:27;;;;;;;6.25;3.65;;;;;;;21.57;77.81;99489.00;4797739;29;20704;-89
2023/09/01 15:55:54;;;;;;;5.80;3.38;;;;;;;21.64;78.03;99499.88;4788795;29;20504;-92
2023/09/01 15:58:20;;;;;;;4.30;3.25;;;;;;;21.62;78.20;99499.22;4788425;29;20031;-93
2023/09/01 16:01:05;;;;;;;4.28;3.33;;;;;;;21.64;77.50;99499.88;4766269;30;20047;-92
2023/09/01 16:03:31;;;;;;;4.45;3.45;;;;;;;21.67;77.30;99497.78;4752015;30;20039;-91
2023/09/01 16:05:59;;;;;;;5.80;3.95;;;;;;;21.68;76.90;99501.25;4751757;30;20040;-91
2023/09/01 16:08:25;;;;;;;4.10;3.20;;;;;;;21.68;77.06;99510.03;4751389;30;20462;-92
2023/09/01 16:10:50;;;;;;;5.28;3.50;;;;;;;21.65;77.54;99505.03;4751624;30;20047;-92
2023/09/01 16:13:16;;;;;;;4.55;3.50;;;;;;;21.61;77.83;99506.28;4751613;30;20097;-92
2023/09/01 16:15:42;;;;;;;6.40;3.28;;;;;;;21.57;78.75;99506.72;4751396;30;20183;-92
2023/09/01 16:18:07;;;;;;;5.60;3.47;;;;;;;21.52;78.55;99498.41;4751587;30;20036;-92
2023/09/01 16:20:33;;;;;;;5.20;3.03;;;;;;;21.44;78.51;99491.16;4766064;30;20494;-92
2023/09/01 16:22:58;;;;;;;4.13;3.17;;;;;;;21.41;79.05;99486.16;4751268;30;20036;-92
2023/09/01 16:25:24;;;;;;;3.28;2.80;;;;;;;21.35;80.04;99502.63;4751604;30;20031;-92
2023/09/01 16:27:49;;;;;;;4.63;3.30;;;;;;;21.31;80.93;99509.16;4751462;30;20043;-92
2023/09/01 16:30:17;;;;;;;4.22;3.30;;;;;;;21.26;82.44;99508.75;4751730;30;20036;-92
2023/09/01 16:32:42;;;;;;;3.28;2.88;;;;;;;21.20;83.13;99504.06;4783189;29;20050;-91
2023/09/01 16:35:14;;;;;;;4.10;3.17;;;;;;;21.13;82.83;99499.31;4788316;29;20039;-92
2023/09/01 16:37:40;;;;;;;3.92;3.22;;;;;;;21.00;83.16;99482.88;4787407;29;20433;-92
2023/09/01 16:40:06;;;;;;;4.00;3.00;;;;;;;21.04;82.61;99508.09;4785404;29;20035;-91
2023/09/01 16:42:32;;;;;;;5.40;3.92;;;;;;;21.03;82.92;99502.97;4784850;30;20062;-92
2023/09/01 16:44:57;;;;;;;4.70;3.30;;;;;;;20.91;83.77;99495.16;4770227;30;20116;-92
2023/09/01 16:47:23;;;;;;;3.65;3.10;;;;;;;20.97;84.51;99514.94;4784909;30;20136;-90
2023/09/01 16:49:49;;;;;;;4.72;3.45;;;;;;;20.87;84.31;99501.72;4785297;30;20068;-91
2023/09/01 16:52:14;;;;;;;5.40;3.53;;;;;;;20.88;84.10;99499.91;4769741;30;20506;-90
2023/09/01 16:54:40;;;;;;;4.25;3.00;;;;;;;20.87;84.17;99511.47;4784969;30;20035;-91
2023/09/01 16:57:05;;;;;;;4.20;3.35;;;;;;;20.81;84.16;99507.56;4770465;30;20042;-89
2023/09/01 16:59:30;;;;;;;5.18;3.38;;;;;;;20.75;85.72;99504.66;4769987;30;20062;-90
2023/09/01 17:01:56;;;;;;;3.63;3.30;;;;;;;20.71;86.41;99504.09;4785091;30;20374;-90
2023/09/01 17:04:21;;;;;;;5.90;3.22;;;;;;;20.59;87.07;99497.25;4785091;30;20031;-89
2023/09/01 17:06:48;;;;;;;4.00;2.95;;;;;;;20.53;87.57;99506.59;4785902;29;20039;-90
2023/09/01 17:09:14;;;;;;;4.82;3.50;;;;;;;20.50;87.19;99514.81;4783962;30;20542;-90
2023/09/01 17:11:40;;;;;;;4.03;3.10;;;;;;;20.44;88.39;99520.63;4783763;29;20062;-89
2023/09/01 17:14:05;;;;;;;4.38;3.17;;;;;;;20.37;88.81;99528.28;4772778;30;20118;-89
2023/09/01 17:16:31;;;;;;;3.95;2.90;;;;;;;20.31;90.85;99538.53;4772831;29;20177;-90
2023/09/01 17:18:57;;;;;;;4.97;3.17;;;;;;;20.22;91.21;99542.00;4787937;29;20035;-90
2023/09/01 17:21:23;;;;;;;5.20;3.33;;;;;;;20.18;91.00;99536.16;4789221;29;20046;-89
2023/09/01 17:23:49;;;;;;;4.57;3.47;;;;;;;20.09;91.25;99516.66;4788093;29;20421;-90
2023/09/01 17:26:15;;;;;;;5.75;3.38;;;;;;;20.08;91.33;99522.91;4788070;29;20477;-89
2023/09/01 17:28:41;;;;;;;4.05;3.10;;;;;;;20.02;93.12;99534.03;4787593;29;20039;-90
2023/09/01 17:31:07;;;;;;;7.75;5.80;;;;;;;19.96;93.05;99526.63;4773042;30;20122;-89
2023/09/01 17:33:33;;;;;;;23.88;13.98;;;;;;;19.83;94.82;99526.88;4787706;30;20381;-90
2023/09/01 17:36:00;;;;;;;16.52;11.75;;;;;;;19.75;95.84;99528.50;4787948;29;20039;-90
2023/09/01 17:38:26;;;;;;;12.20;8.10;;;;;;;19.68;96.62;99529.06;4779010;29;20062;-89
2023/09/01 17:40:53;;;;;;;13.30;9.80;;;;;;;19.61;96.71;99527.91;4806310;29;20030;-91
2023/09/01 17:43:22;;;;;;;12.75;8.07;;;;;;;19.52;97.88;99541.88;4790880;29;20411;-93
2023/09/01 17:45:53;;;;;;;11.85;8.25;;;;;;;19.48;98.87;99551.03;4806377;29;20030;-93
2023/09/01 17:48:40;;;;;;;8.63;6.63;;;;;;;19.47;98.98;99544.06;4806558;29;20438;-92
2023/09/01 17:55:20;;;;;;;7.00;4.35;;;;;;;19.23;99.61;99528.50;4770012;30;20417;-92
2023/09/01 17:58:09;;;;;;;6.13;4.55;;;;;;;19.17;100.00;99535.13;4728583;30;20045;-92
2023/09/01 18:04:21;;;;;;;51.03;36.33;;;;;;;19.04;100.00;99555.59;4718547;30;20075;-93
2023/09/01 18:10:43;;;;;;;43.25;30.80;;;;;;;18.78;100.00;99564.81;5479233;24;20073;-93
2023/09/01 18:13:51;;;;;;;38.80;29.77;;;;;;;18.67;100.00;99542.78;5071154;24;20026;-92
2023/09/01 18:17:27;;;;;;;35.30;26.58;;;;;;;18.74;100.00;99553.69;4838244;24;20054;-93
2023/09/01 18:30:04;;;;;;;14.00;10.70;;;;;;;18.37;100.00;99516.25;4825130;29;20095;-91
2023/09/01 18:32:31;;;;;;;15.38;11.98;;;;;;;18.32;100.00;99489.41;4802677;29;20504;-90
2023/09/01 18:34:58;;;;;;;14.48;11.65;;;;;;;18.68;100.00;99546.25;4808352;29;20034;-91
2023/09/01 18:37:26;;;;;;;13.15;10.13;;;;;;;18.53;100.00;99524.59;4808327;29;20404;-90
2023/09/01 18:39:52;;;;;;;16.35;9.73;;;;;;;18.77;100.00;99569.28;4752780;30;20050;-91
2023/09/01 18:42:37;;;;;;;12.90;9.98;;;;;;;18.77;100.00;99571.91;4753862;30;20139;-91
2023/09/01 18:45:09;;;;;;;11.65;9.00;;;;;;;18.77;100.00;99573.72;4753280;30;20535;-90
2023/09/01 18:47:36;;;;;;;10.38;7.82;;;;;;;18.73;100.00;99585.47;4752995;30;20042;-91
2023/09/01 18:50:03;;;;;;;12.38;7.72;;;;;;;17.94;100.00;99457.28;4753168;30;20048;-91
2023/09/01 18:52:29;;;;;;;8.27;6.95;;;;;;;17.77;100.00;99434.09;4753116;30;20039;-92
2023/09/01 18:54:55;;;;;;;8.23;7.00;;;;;;;18.52;100.00;99553.72;4753325;30;20500;-92
2023/09/01 18:57:20;;;;;;;9.10;6.28;;;;;;;18.68;100.00;99588.47;4752406;30;20043;-91
2023/09/01 18:59:46;;;;;;;6.32;5.68;;;;;;;18.60;100.00;99577.69;4753010;30;20546;-91
2023/09/01 19:02:35;;;;;;;8.82;6.22;;;;;;;18.64;100.00;99595.78;4753230;30;20067;-91
2023/09/01 19:05:06;;;;;;;8.05;7.00;;;;;;;18.62;100.00;99604.75;4753600;30;20051;-92
2023/09/01 19:07:33;;;;;;;7.28;6.57;;;;;;;18.58;100.00;99601.56;4752924;30;20509;-91
2023/09/01 19:10:19;;;;;;;10.00;6.45;;;;;;;18.50;100.00;99588.16;4762096;29;20038;-94
2023/09/01 19:12:52;;;;;;;6.15;4.95;;;;;;;18.48;100.00;99595.34;4771465;30;20079;-92
2023/09/01 19:18:09;;;;;;;8.40;5.15;;;;;;;18.53;100.00;99595.78;5670121;24;20409;-90
2023/09/01 19:20:35;;;;;;;8.25;4.35;;;;;;;18.06;100.00;99529.25;4823075;29;20045;-90
2023/09/01 19:23:39;;;;;;;7.30;5.15;;;;;;;18.40;100.00;99581.91;4823525;29;20579;-90
2023/09/01 19:26:30;;;;;;;5.93;4.85;;;;;;;18.47;100.00;99600.75;4807271;29;20030;-90
2023/09/01 19:28:58;;;;;;;;;;;;;;;18.47;100.00;99604.22;4824192;29;20038;-89
2023/09/01 19:31:27;;;;;;;8.20;5.65;;;;;;;18.41;100.00;99600.28;4807006;29;19940;-89
2023/09/01 19:33:54;;;;;;;7.70;4.97;;;;;;;17.82;100.00;99494.31;4806771;29;20404;-89
2023/09/01 19:36:30;;;;;;;8.65;5.30;;;;;;;18.47;100.00;99609.50;4806536;29;20022;-90
2023/09/01 19:39:22;;;;;;;5.88;5.20;;;;;;;18.41;100.00;99608.19;4784772;30;20157;-88
2023/09/01 19:41:47;;;;;;;7.97;5.53;;;;;;;18.43;100.00;99608.88;4719702;30;20514;-89
2023/09/01 19:44:14;;;;;;;7.13;5.57;;;;;;;18.38;100.00;99600.50;4748912;30;20309;-89
2023/09/01 19:46:39;;;;;;;4.57;4.10;;;;;;;18.38;100.00;99613.69;4719496;30;20534;-89
2023/09/01 19:49:11;;;;;;;10.38;5.22;;;;;;;18.25;100.00;99596.34;4734098;30;20044;-89
2023/09/01 19:51:40;;;;;;;9.43;7.00;;;;;;;18.11;100.00;99565.78;4748544;30;20032;-89
2023/09/01 19:54:07;;;;;;;22.92;15.57;;;;;;;18.09;100.00;99571.19;4720077;30;20059;-90
2023/09/01 19:56:33;;;;;;;18.45;13.65;;;;;;;18.35;100.00;99615.75;4748793;30;20051;-90
2023/09/01 19:59:03;;;;;;;15.90;12.20;;;;;;;18.06;100.00;99575.84;4748799;30;20044;-90
2023/09/01 20:01:31;;;;;;;12.05;10.65;;;;;;;18.30;100.00;99612.63;4748750;30;20182;-90
2023/09/01 20:03:59;;;;;;;12.95;9.25;;;;;;;18.25;100.00;99613.00;4748860;30;20417;-90
2023/09/01 20:06:27;;;;;;;12.02;9.40;;;;;;;18.28;100.00;99620.66;4713611;30;20569;-90
2023/09/01 20:08:55;;;;;;;11.15;8.00;;;;;;;18.11;100.00;99597.41;4684515;30;20049;-90
2023/09/01 20:11:25;;;;;;;9.55;6.13;;;;;;;18.26;100.00;99617.31;4746804;30;20071;-90
2023/09/01 20:13:54;;;;;;;8.02;5.32;;;;;;;17.98;100.00;99576.47;4687964;30;20277;-89
2023/09/01 20:16:26;;;;;;;7.30;5.53;;;;;;;17.89;100.00;99571.91;4716636;30;20452;-90
2023/09/01 20:18:53;;;;;;;7.18;5.97;;;;;;;18.04;100.00;99604.97;4730474;30;20135;-90
2023/09/01 20:21:20;;;;;;;8.40;6.18;;;;;;;17.62;100.00;99545.91;4731475;30;20049;-89
2023/09/01 20:23:45;;;;;;;8.45;7.18;;;;;;;18.19;100.00;99638.03;4713354;30;20045;-89
2023/09/01 20:26:11;;;;;;;7.22;6.30;;;;;;;17.70;100.00;99561.94;4713898;30;20056;-90
2023/09/01 20:28:36;;;;;;;8.85;7.20;;;;;;;18.18;100.00;99639.00;4713768;30;20049;-90
2023/09/01 20:31:02;;;;;;;8.65;7.25;;;;;;;18.02;100.00;99606.88;4714150;30;20033;-89
2023/09/01 20:33:28;;;;;;;9.50;7.57;;;;;;;18.11;100.00;99623.78;4699623;30;20115;-90
2023/09/01 20:35:54;;;;;;;10.38;7.35;;;;;;;18.23;100.00;99637.78;4727799;30;20082;-88
2023/09/01 20:38:20;;;;;;;7.20;5.45;;;;;;;18.13;100.00;99624.50;4698747;30;20960;-90
2023/09/01 20:40:45;;;;;;;6.57;5.38;;;;;;;18.01;100.00;99612.28;4727595;30;20067;-89
2023/09/01 20:43:10;;;;;;;7.75;5.38;;;;;;;18.14;100.00;99639.34;4727997;30;20041;-90
2023/09/01 20:45:40;;;;;;;5.18;4.68;;;;;;;17.95;100.00;99624.97;4698946;30;20037;-89
2023/09/01 20:48:06;;;;;;;5.53;5.03;;;;;;;18.05;100.00;99650.63;4731111;30;20660;-89
2023/09/01 20:50:31;;;;;;;7.15;4.95;;;;;;;17.98;100.00;99644.13;4723136;30;20048;-90
2023/09/01 20:52:57;;;;;;;8.18;5.45;;;;;;;17.90;100.00;99656.09;4737058;30;20137;-89
2023/09/01 20:55:22;;;;;;;9.40;5.03;;;;;;;17.84;100.00;99661.84;4764900;30;20055;-89
2023/09/01 20:57:48;;;;;;;6.50;5.07;;;;;;;17.76;100.00;99656.31;4789775;30;20039;-89
2023/09/01 21:00:20;;;;;;;7.07;5.03;;;;;;;17.75;100.00;99645.91;4773894;30;20024;-89
2023/09/01 21:02:47;;;;;;;5.82;5.03;;;;;;;17.79;100.00;99658.72;4773320;30;20508;-89
2023/09/01 21:05:15;;;;;;;7.72;4.47;;;;;;;17.61;100.00;99623.22;4773780;30;20488;-89
2023/09/01 21:07:41;;;;;;;6.93;5.95;;;;;;;17.50;100.00;99605.59;4773300;30;20036;-90
2023/09/01 21:10:08;;;;;;;8.35;5.68;;;;;;;17.86;100.00;99667.00;4773707;30;20485;-88
2023/09/01 21:12:34;;;;;;;7.78;5.05;;;;;;;17.81;100.00;99653.34;4773278;30;20043;-89
2023/09/01 21:15:00;;;;;;;8.00;5.70;;;;;;;17.70;100.00;99654.97;4773291;30;20041;-88
2023/09/01 21:17:26;;;;;;;6.88;6.10;;;;;;;17.51;100.00;99630.97;4773486;30;20039;-89
2023/09/01 21:19:53;;;;;;;8.10;5.60;;;;;;;17.69;100.00;99660.34;4787124;29;20054;-89
2023/09/01 21:22:19;;;;;;;8.88;5.97;;;;;;;17.54;100.00;99630.75;4791161;29;20054;-89
2023/09/01 21:24:44;;;;;;;7.30;5.82;;;;;;;17.65;100.00;99648.34;4790861;29;20126;-89
2023/09/01 21:27:10;;;;;;;6.63;5.95;;;;;;;17.53;100.00;99636.97;4791290;29;20113;-89
2023/09/01 21:29:38;;;;;;;6.28;5.57;;;;;;;17.72;100.00;99678.56;4791289;29;20079;-89
2023/09/01 21:32:03;;;;;;;7.22;6.10;;;;;;;17.70;100.00;99672.59;4790891;29;20039;-89
2023/09/01 21:34:29;;;;;;;8.23;5.97;;;;;;;17.64;100.00;99659.84;4790720;29;20038;-88
2023/09/01 21:36:54;;;;;;;7.05;5.82;;;;;;;17.70;100.00;99677.84;4790765;29;20073;-88
2023/09/01 21:39:20;;;;;;;7.15;5.88;;;;;;;17.44;100.00;99625.34;4791288;29;20034;-89
2023/09/01 21:41:45;;;;;;;7.75;6.25;;;;;;;17.68;100.00;99658.66;4790986;29;20034;-89
2023/09/01 21:44:10;;;;;;;7.95;6.78;;;;;;;17.70;100.00;99676.06;4791139;29;20035;-88
2023/09/01 21:46:36;;;;;;;8.27;5.93;;;;;;;17.63;100.00;99664.28;4790725;29;20519;-88
2023/09/01 21:49:01;;;;;;;7.53;6.25;;;;;;;17.56;100.00;99662.22;4790739;29;20147;-89
2023/09/01 21:51:27;;;;;;;10.82;6.78;;;;;;;17.50;100.00;99660.06;4790657;29;20031;-89
2023/09/01 21:53:52;;;;;;;7.05;6.22;;;;;;;17.52;100.00;99669.50;4790541;29;20046;-90
2023/09/01 21:56:17;;;;;;;7.40;6.30;;;;;;;17.39;100.00;99645.06;4790877;29;20087;-89
2023/09/01 21:58:43;;;;;;;7.70;6.50;;;;;;;17.45;100.00;99665.69;4789574;29;20103;-89
2023/09/01 22:01:08;;;;;;;9.77;7.53;;;;;;;17.28;100.00;99634.50;4790603;29;20087;-89
2023/09/01 22:03:33;;;;;;;9.73;7.30;;;;;;;17.28;100.00;99631.88;4790714;29;20122;-89
2023/09/01 22:05:59;;;;;;;9.10;6.82;;;;;;;17.29;100.00;99644.09;4790320;29;20436;-89
2023/09/01 22:08:24;;;;;;;7.10;6.32;;;;;;;17.19;100.00;99623.72;4806977;29;20038;-89
2023/09/01 22:10:50;;;;;;;8.07;7.25;;;;;;;17.07;100.00;99608.84;4790149;29;20473;-89
2023/09/01 22:13:16;;;;;;;7.93;6.95;;;;;;;17.38;100.00;99660.03;4790386;29;20035;-89
2023/09/01 22:15:41;;;;;;;7.30;6.57;;;;;;;17.26;100.00;99639.03;4790298;29;20031;-90
2023/09/01 22:18:07;;;;;;;9.75;7.03;;;;;;;17.26;100.00;99645.13;4789110;29;20054;-90
2023/09/01 22:20:32;;;;;;;8.15;7.32;;;;;;;17.34;100.00;99663.00;4772170;29;20031;-89
2023/09/01 22:22:58;;;;;;;8.68;6.32;;;;;;;17.37;100.00;99663.63;4772385;30;20039;-89
2023/09/01 22:25:24;;;;;;;8.70;7.32;;;;;;;17.39;100.00;99666.97;4772463;30;20179;-89
2023/09/01 22:27:50;;;;;;;9.93;7.05;;;;;;;17.45;100.00;99676.22;4772150;30;20031;-89
2023/09/01 22:30:15;;;;;;;11.98;7.60;;;;;;;17.42;100.00;99666.75;4772282;30;20038;-89
2023/09/01 22:32:41;;;;;;;9.38;7.82;;;;;;;17.42;100.00;99669.38;4772073;30;20063;-90
2023/09/01 22:35:06;;;;;;;9.57;7.45;;;;;;;17.09;100.00;99617.44;4771973;29;20027;-88
2023/09/01 22:37:33;;;;;;;8.88;7.30;;;;;;;17.30;100.00;99643.13;4772748;30;20066;-89
2023/09/01 22:39:59;;;;;;;11.10;7.30;;;;;;;17.18;100.00;99639.59;4780131;30;20023;-89
2023/09/01 22:42:25;;;;;;;10.30;7.55;;;;;;;16.96;100.00;99614.03;4777872;30;20444;-90
2023/09/01 22:44:51;;;;;;;10.90;8.82;;;;;;;17.02;100.00;99647.78;4788117;30;20027;-90
2023/09/01 22:47:16;;;;;;;9.50;8.00;;;;;;;16.91;100.00;99648.59;4771941;30;20042;-89
2023/09/01 22:49:42;;;;;;;7.60;6.80;;;;;;;17.04;100.00;99664.31;4771833;30;20042;-89
2023/09/01 22:52:09;;;;;;;10.52;7.88;;;;;;;17.04;100.00;99679.25;4771724;30;20039;-90
2023/09/01 22:54:34;;;;;;;9.77;7.32;;;;;;;17.06;100.00;99677.34;4771570;30;20063;-90
2023/09/01 22:56:59;;;;;;;7.88;6.85;;;;;;;17.02;100.00;99668.00;4787879;30;20043;-89
2023/09/01 22:59:25;;;;;;;11.52;7.50;;;;;;;17.10;100.00;99681.44;4771860;30;20031;-90
2023/09/01 23:01:50;;;;;;;15.40;10.18;;;;;;;17.18;100.00;99687.81;4771533;30;20031;-89
2023/09/01 23:04:15;;;;;;;9.63;8.25;;;;;;;17.12;100.00;99676.91;4787952;30;20081;-89
2023/09/01 23:06:42;;;;;;;11.52;8.23;;;;;;;17.15;100.00;99677.53;4771753;30;20032;-90
2023/09/01 23:09:07;;;;;;;10.43;8.27;;;;;;;17.07;100.00;99658.00;4787657;29;20027;-90
2023/09/01 23:11:33;;;;;;;10.57;8.05;;;;;;;16.98;100.00;99645.50;4771637;30;20050;-89
2023/09/01 23:13:58;;;;;;;9.02;7.65;;;;;;;17.11;100.00;99672.59;4787271;30;20057;-89
2023/09/01 23:16:23;;;;;;;10.80;7.85;;;;;;;17.14;100.00;99675.81;4771441;30;20111;-90
2023/09/01 23:18:49;;;;;;;11.52;8.50;;;;;;;17.19;100.00;99678.13;4793198;29;20417;-90
2023/09/01 23:21:15;;;;;;;8.65;7.75;;;;;;;17.11;100.00;99667.34;4789407;29;20058;-90
2023/09/01 23:23:40;;;;;;;9.60;8.55;;;;;;;17.19;100.00;99678.13;4789471;29;20039;-88
2023/09/01 23:26:06;;;;;;;9.05;7.35;;;;;;;17.10;100.00;99666.47;4789150;29;20138;-90
2023/09/01 23:28:32;;;;;;;9.20;8.30;;;;;;;17.20;100.00;99679.81;4789043;29;20183;-89
2023/09/01 23:30:58;;;;;;;9.05;7.53;;;;;;;17.19;100.00;99683.38;4788799;29;20031;-89
2023/09/01 23:33:23;;;;;;;9.30;8.00;;;;;;;17.16;100.00;99678.38;4788972;29;20070;-88
2023/09/01 23:35:49;;;;;;;10.23;7.63;;;;;;;16.82;100.00;99622.94;4788948;29;20175;-89
2023/09/01 23:38:14;;;;;;;8.27;7.32;;;;;;;16.91;100.00;99631.97;4789099;29;20042;-89
2023/09/01 23:40:39;;;;;;;12.25;7.43;;;;;;;16.95;100.00;99639.50;4788844;29;20033;-88
2023/09/01 23:43:05;;;;;;;9.32;8.18;;;;;;;17.14;100.00;99673.19;4788692;29;20122;-88
2023/09/01 23:45:30;;;;;;;12.73;9.27;;;;;;;17.15;100.00;99667.00;4788968;29;20058;-88
2023/09/01 23:47:56;;;;;;;9.85;8.45;;;;;;;17.08;100.00;99667.56;4788452;29;20064;-89
2023/09/01 23:50:21;;;;;;;10.05;8.50;;;;;;;16.95;100.00;99659.72;4788958;29;20031;-88
2023/09/01 23:52:47;;;;;;;8.25;7.43;;;;;;;16.88;100.00;99658.47;4788663;29;20079;-88
2023/09/01 23:55:13;;;;;;;12.00;7.95;;;;;;;16.93;100.00;99665.06;4788614;29;20062;-89
2023/09/01 23:57:38;;;;;;;10.55;6.97;;;;;;;16.88;100.00;99656.69;4788737;29;20030;-88
